sensor_id;sensor_type;location;lat;lon;timestamp;P1;durP1;ratioP1;P2;durP2;ratioP2
37001;SDS011;22913;51.910;8.374;2022-08-19T00:01:30;6.47;;;5.27;;
37001;SDS011;22913;51.910;8.374;2022-08-19T00:04:17;7.17;;;5.87;;
37001;SDS011;22913;51.910;8.374;2022-08-19T00:07:03;7.80;;;5.40;;
37001;SDS011;22913;51.910;8.374;2022-08-19T00:09:50;8.43;;;5.73;;
37001;SDS011;22913;51.910;8.374;2022-08-19T00:12:36;7.53;;;6.20;;
37001;SDS011;22913;51.910;8.374;2022-08-19T00:15:23;7.03;;;5.67;;
37001;SDS011;22913;51.910;8.374;2022-08-19T00:18:09;7.57;;;6.00;;
37001;SDS011;22913;51.910;8.374;2022-08-19T00:20:56;6.30;;;5.80;;
37001;SDS011;22913;51.910;8.374;2022-08-19T00:23:41;6.57;;;5.90;;
37001;SDS011;22913;51.910;8.374;2022-08-19T00:26:27;9.33;;;5.80;;
37001;SDS011;22913;51.910;8.374;2022-08-19T00:29:14;8.67;;;5.90;;
37001;SDS011;22913;51.910;8.374;2022-08-19T00:32:01;8.20;;;6.10;;
37001;SDS011;22913;51.910;8.374;2022-08-19T00:34:47;7.03;;;5.90;;
37001;SDS011;22913;51.910;8.374;2022-08-19T00:37:34;8.53;;;5.53;;
37001;SDS011;22913;51.910;8.374;2022-08-19T00:40:20;6.67;;;6.07;;
37001;SDS011;22913;51.910;8.374;2022-08-19T00:43:09;8.93;;;5.87;;
37001;SDS011;22913;51.910;8.374;2022-08-19T00:45:56;6.90;;;5.77;;
37001;SDS011;22913;51.910;8.374;2022-08-19T00:48:42;9.13;;;5.33;;
37001;SDS011;22913;51.910;8.374;2022-08-19T00:51:28;8.23;;;6.07;;
37001;SDS011;22913;51.910;8.374;2022-08-19T00:54:19;6.40;;;5.60;;
37001;SDS011;22913;51.910;8.374;2022-08-19T00:57:07;7.63;;;6.00;;
37001;SDS011;22913;51.910;8.374;2022-08-19T00:59:56;7.17;;;5.37;;
37001;SDS011;22913;51.910;8.374;2022-08-19T01:02:43;8.13;;;6.67;;
37001;SDS011;22913;51.910;8.374;2022-08-19T01:05:29;7.03;;;6.00;;
37001;SDS011;22913;51.910;8.374;2022-08-19T01:08:15;7.83;;;6.73;;
37001;SDS011;22913;51.910;8.374;2022-08-19T01:11:04;7.00;;;6.27;;
37001;SDS011;22913;51.910;8.374;2022-08-19T01:13:52;7.43;;;6.60;;
37001;SDS011;22913;51.910;8.374;2022-08-19T01:16:38;8.60;;;6.40;;
37001;SDS011;22913;51.910;8.374;2022-08-19T01:19:26;7.13;;;6.43;;
37001;SDS011;22913;51.910;8.374;2022-08-19T01:22:14;10.57;;;6.67;;
37001;SDS011;22913;51.910;8.374;2022-08-19T01:25:06;7.70;;;6.03;;
37001;SDS011;22913;51.910;8.374;2022-08-19T01:27:52;8.50;;;6.47;;
37001;SDS011;22913;51.910;8.374;2022-08-19T01:30:39;10.47;;;6.50;;
37001;SDS011;22913;51.910;8.374;2022-08-19T01:33:25;8.80;;;6.70;;
37001;SDS011;22913;51.910;8.374;2022-08-19T01:36:16;7.53;;;6.70;;
37001;SDS011;22913;51.910;8.374;2022-08-19T01:39:10;8.20;;;6.73;;
37001;SDS011;22913;51.910;8.374;2022-08-19T01:41:58;9.13;;;6.90;;
37001;SDS011;22913;51.910;8.374;2022-08-19T01:44:46;7.63;;;6.87;;
37001;SDS011;22913;51.910;8.374;2022-08-19T01:47:32;8.73;;;6.63;;
37001;SDS011;22913;51.910;8.374;2022-08-19T01:50:19;9.33;;;7.20;;
37001;SDS011;22913;51.910;8.374;2022-08-19T01:53:07;9.17;;;7.50;;
37001;SDS011;22913;51.910;8.374;2022-08-19T01:55:55;7.77;;;6.90;;
37001;SDS011;22913;51.910;8.374;2022-08-19T01:58:43;8.10;;;7.30;;
37001;SDS011;22913;51.910;8.374;2022-08-19T02:01:34;8.77;;;7.73;;
37001;SDS011;22913;51.910;8.374;2022-08-19T02:04:19;8.73;;;7.90;;
37001;SDS011;22913;51.910;8.374;2022-08-19T02:07:06;10.50;;;7.73;;
37001;SDS011;22913;51.910;8.374;2022-08-19T02:09:52;9.53;;;7.43;;
37001;SDS011;22913;51.910;8.374;2022-08-19T02:12:38;9.00;;;7.93;;
37001;SDS011;22913;51.910;8.374;2022-08-19T02:15:25;12.30;;;8.03;;
37001;SDS011;22913;51.910;8.374;2022-08-19T02:18:11;8.40;;;7.60;;
37001;SDS011;22913;51.910;8.374;2022-08-19T02:20:57;9.03;;;8.10;;
37001;SDS011;22913;51.910;8.374;2022-08-19T02:23:42;8.20;;;7.43;;
37001;SDS011;22913;51.910;8.374;2022-08-19T02:26:28;10.20;;;8.13;;
37001;SDS011;22913;51.910;8.374;2022-08-19T02:29:14;9.03;;;8.10;;
37001;SDS011;22913;51.910;8.374;2022-08-19T02:32:01;10.40;;;8.40;;
37001;SDS011;22913;51.910;8.374;2022-08-19T02:34:48;9.10;;;8.20;;
37001;SDS011;22913;51.910;8.374;2022-08-19T02:37:34;8.90;;;8.00;;
37001;SDS011;22913;51.910;8.374;2022-08-19T02:40:37;8.97;;;8.13;;
37001;SDS011;22913;51.910;8.374;2022-08-19T02:43:23;11.87;;;8.73;;
37001;SDS011;22913;51.910;8.374;2022-08-19T02:46:13;8.80;;;7.83;;
37001;SDS011;22913;51.910;8.374;2022-08-19T02:49:05;12.50;;;9.57;;
37001;SDS011;22913;51.910;8.374;2022-08-19T02:51:52;10.40;;;9.40;;
37001;SDS011;22913;51.910;8.374;2022-08-19T02:54:38;10.33;;;8.57;;
37001;SDS011;22913;51.910;8.374;2022-08-19T02:57:24;10.73;;;9.07;;
37001;SDS011;22913;51.910;8.374;2022-08-19T03:00:10;12.43;;;9.47;;
37001;SDS011;22913;51.910;8.374;2022-08-19T03:02:56;10.57;;;9.43;;
37001;SDS011;22913;51.910;8.374;2022-08-19T03:05:45;11.23;;;9.87;;
37001;SDS011;22913;51.910;8.374;2022-08-19T03:08:32;12.27;;;10.30;;
37001;SDS011;22913;51.910;8.374;2022-08-19T03:11:18;11.57;;;10.47;;
37001;SDS011;22913;51.910;8.374;2022-08-19T03:14:06;12.03;;;10.83;;
37001;SDS011;22913;51.910;8.374;2022-08-19T03:16:53;13.63;;;11.30;;
37001;SDS011;22913;51.910;8.374;2022-08-19T03:19:38;12.00;;;10.87;;
37001;SDS011;22913;51.910;8.374;2022-08-19T03:22:26;12.50;;;11.13;;
37001;SDS011;22913;51.910;8.374;2022-08-19T03:25:12;15.30;;;10.97;;
37001;SDS011;22913;51.910;8.374;2022-08-19T03:27:57;12.57;;;11.30;;
37001;SDS011;22913;51.910;8.374;2022-08-19T03:30:53;12.23;;;11.03;;
37001;SDS011;22913;51.910;8.374;2022-08-19T03:33:41;12.57;;;11.40;;
37001;SDS011;22913;51.910;8.374;2022-08-19T03:36:26;13.17;;;11.73;;
37001;SDS011;22913;51.910;8.374;2022-08-19T03:39:14;14.13;;;11.83;;
37001;SDS011;22913;51.910;8.374;2022-08-19T03:42:00;15.63;;;12.43;;
37001;SDS011;22913;51.910;8.374;2022-08-19T03:44:46;15.93;;;12.83;;
37001;SDS011;22913;51.910;8.374;2022-08-19T03:47:32;13.73;;;12.33;;
37001;SDS011;22913;51.910;8.374;2022-08-19T03:50:18;13.53;;;12.33;;
37001;SDS011;22913;51.910;8.374;2022-08-19T03:53:03;15.90;;;12.60;;
37001;SDS011;22913;51.910;8.374;2022-08-19T03:55:51;15.07;;;11.87;;
37001;SDS011;22913;51.910;8.374;2022-08-19T03:58:37;13.73;;;12.17;;
37001;SDS011;22913;51.910;8.374;2022-08-19T04:01:24;15.57;;;12.63;;
37001;SDS011;22913;51.910;8.374;2022-08-19T04:04:11;14.70;;;13.30;;
37001;SDS011;22913;51.910;8.374;2022-08-19T04:06:56;14.03;;;12.73;;
37001;SDS011;22913;51.910;8.374;2022-08-19T04:09:42;15.57;;;13.37;;
37001;SDS011;22913;51.910;8.374;2022-08-19T04:12:30;15.20;;;13.77;;
37001;SDS011;22913;51.910;8.374;2022-08-19T04:15:16;13.70;;;12.47;;
37001;SDS011;22913;51.910;8.374;2022-08-19T04:18:02;14.70;;;13.30;;
37001;SDS011;22913;51.910;8.374;2022-08-19T04:20:49;18.60;;;13.67;;
37001;SDS011;22913;51.910;8.374;2022-08-19T04:23:35;14.90;;;13.00;;
37001;SDS011;22913;51.910;8.374;2022-08-19T04:26:22;16.17;;;14.37;;
37001;SDS011;22913;51.910;8.374;2022-08-19T04:29:12;15.03;;;13.57;;
37001;SDS011;22913;51.910;8.374;2022-08-19T04:31:59;16.07;;;13.67;;
37001;SDS011;22913;51.910;8.374;2022-08-19T04:34:45;14.13;;;12.93;;
37001;SDS011;22913;51.910;8.374;2022-08-19T04:37:31;16.27;;;13.53;;
37001;SDS011;22913;51.910;8.374;2022-08-19T04:40:18;14.87;;;13.50;;
37001;SDS011;22913;51.910;8.374;2022-08-19T04:43:21;16.47;;;13.87;;
37001;SDS011;22913;51.910;8.374;2022-08-19T04:46:08;14.83;;;13.33;;
37001;SDS011;22913;51.910;8.374;2022-08-19T04:48:56;15.47;;;14.03;;
37001;SDS011;22913;51.910;8.374;2022-08-19T04:51:44;15.53;;;14.03;;
37001;SDS011;22913;51.910;8.374;2022-08-19T04:54:31;16.13;;;14.53;;
37001;SDS011;22913;51.910;8.374;2022-08-19T04:57:17;15.30;;;13.87;;
37001;SDS011;22913;51.910;8.374;2022-08-19T05:00:03;15.70;;;14.10;;
37001;SDS011;22913;51.910;8.374;2022-08-19T05:02:51;16.27;;;14.57;;
37001;SDS011;22913;51.910;8.374;2022-08-19T05:05:40;16.80;;;15.10;;
37001;SDS011;22913;51.910;8.374;2022-08-19T05:08:26;16.57;;;15.07;;
37001;SDS011;22913;51.910;8.374;2022-08-19T05:11:13;16.53;;;14.93;;
37001;SDS011;22913;51.910;8.374;2022-08-19T05:14:01;17.47;;;15.67;;
37001;SDS011;22913;51.910;8.374;2022-08-19T05:16:47;16.77;;;14.90;;
37001;SDS011;22913;51.910;8.374;2022-08-19T05:19:34;16.57;;;15.07;;
37001;SDS011;22913;51.910;8.374;2022-08-19T05:22:37;16.83;;;15.33;;
37001;SDS011;22913;51.910;8.374;2022-08-19T05:25:24;17.73;;;16.17;;
37001;SDS011;22913;51.910;8.374;2022-08-19T05:28:10;19.47;;;17.33;;
37001;SDS011;22913;51.910;8.374;2022-08-19T05:30:55;18.93;;;17.13;;
37001;SDS011;22913;51.910;8.374;2022-08-19T05:33:41;18.07;;;16.37;;
37001;SDS011;22913;51.910;8.374;2022-08-19T05:36:29;18.80;;;16.77;;
37001;SDS011;22913;51.910;8.374;2022-08-19T05:39:20;19.60;;;17.50;;
37001;SDS011;22913;51.910;8.374;2022-08-19T05:42:07;20.13;;;18.43;;
37001;SDS011;22913;51.910;8.374;2022-08-19T05:44:55;20.57;;;18.37;;
37001;SDS011;22913;51.910;8.374;2022-08-19T05:47:41;19.13;;;17.27;;
37001;SDS011;22913;51.910;8.374;2022-08-19T05:50:26;20.93;;;17.53;;
37001;SDS011;22913;51.910;8.374;2022-08-19T05:53:13;18.80;;;16.90;;
37001;SDS011;22913;51.910;8.374;2022-08-19T05:56:03;19.40;;;17.63;;
37001;SDS011;22913;51.910;8.374;2022-08-19T05:58:49;21.97;;;17.07;;
37001;SDS011;22913;51.910;8.374;2022-08-19T06:01:38;19.70;;;17.73;;
37001;SDS011;22913;51.910;8.374;2022-08-19T06:04:26;18.93;;;16.97;;
37001;SDS011;22913;51.910;8.374;2022-08-19T06:07:12;20.17;;;18.03;;
37001;SDS011;22913;51.910;8.374;2022-08-19T06:10:00;18.97;;;17.17;;
37001;SDS011;22913;51.910;8.374;2022-08-19T06:12:46;18.97;;;17.17;;
37001;SDS011;22913;51.910;8.374;2022-08-19T06:15:32;19.50;;;17.57;;
37001;SDS011;22913;51.910;8.374;2022-08-19T06:18:18;18.83;;;17.10;;
37001;SDS011;22913;51.910;8.374;2022-08-19T06:21:04;19.63;;;17.83;;
37001;SDS011;22913;51.910;8.374;2022-08-19T06:23:50;19.90;;;18.03;;
37001;SDS011;22913;51.910;8.374;2022-08-19T06:26:39;19.23;;;17.33;;
37001;SDS011;22913;51.910;8.374;2022-08-19T06:29:27;19.70;;;17.03;;
37001;SDS011;22913;51.910;8.374;2022-08-19T06:32:15;18.37;;;16.53;;
37001;SDS011;22913;51.910;8.374;2022-08-19T06:35:03;19.73;;;17.93;;
37001;SDS011;22913;51.910;8.374;2022-08-19T06:37:49;19.07;;;17.20;;
37001;SDS011;22913;51.910;8.374;2022-08-19T06:40:36;17.90;;;16.27;;
37001;SDS011;22913;51.910;8.374;2022-08-19T06:43:23;17.43;;;15.83;;
37001;SDS011;22913;51.910;8.374;2022-08-19T06:46:10;18.73;;;16.97;;
37001;SDS011;22913;51.910;8.374;2022-08-19T06:48:57;17.43;;;15.60;;
37001;SDS011;22913;51.910;8.374;2022-08-19T06:51:44;16.63;;;15.10;;
37001;SDS011;22913;51.910;8.374;2022-08-19T06:54:32;17.03;;;15.43;;
37001;SDS011;22913;51.910;8.374;2022-08-19T06:57:18;16.07;;;14.43;;
37001;SDS011;22913;51.910;8.374;2022-08-19T07:00:06;16.33;;;14.83;;
37001;SDS011;22913;51.910;8.374;2022-08-19T07:02:54;14.70;;;13.30;;
37001;SDS011;22913;51.910;8.374;2022-08-19T07:05:40;15.30;;;13.73;;
37001;SDS011;22913;51.910;8.374;2022-08-19T07:08:27;16.30;;;14.87;;
37001;SDS011;22913;51.910;8.374;2022-08-19T07:11:14;14.83;;;13.43;;
37001;SDS011;22913;51.910;8.374;2022-08-19T07:14:03;13.20;;;12.00;;
37001;SDS011;22913;51.910;8.374;2022-08-19T07:16:52;13.07;;;11.77;;
37001;SDS011;22913;51.910;8.374;2022-08-19T07:19:39;12.83;;;11.60;;
37001;SDS011;22913;51.910;8.374;2022-08-19T07:22:26;14.57;;;12.40;;
37001;SDS011;22913;51.910;8.374;2022-08-19T07:25:12;12.97;;;11.80;;
37001;SDS011;22913;51.910;8.374;2022-08-19T07:27:58;12.80;;;11.60;;
37001;SDS011;22913;51.910;8.374;2022-08-19T07:30:43;14.13;;;10.73;;
37001;SDS011;22913;51.910;8.374;2022-08-19T07:33:30;12.10;;;10.93;;
37001;SDS011;22913;51.910;8.374;2022-08-19T07:36:18;12.27;;;11.13;;
37001;SDS011;22913;51.910;8.374;2022-08-19T07:39:07;12.03;;;10.47;;
37001;SDS011;22913;51.910;8.374;2022-08-19T07:41:55;11.30;;;10.20;;
37001;SDS011;22913;51.910;8.374;2022-08-19T07:44:43;10.67;;;9.67;;
37001;SDS011;22913;51.910;8.374;2022-08-19T07:47:28;9.77;;;8.97;;
37001;SDS011;22913;51.910;8.374;2022-08-19T07:50:15;8.33;;;7.60;;
37001;SDS011;22913;51.910;8.374;2022-08-19T07:53:02;8.97;;;6.67;;
37001;SDS011;22913;51.910;8.374;2022-08-19T07:55:48;10.73;;;9.63;;
37001;SDS011;22913;51.910;8.374;2022-08-19T07:58:35;8.03;;;7.23;;
37001;SDS011;22913;51.910;8.374;2022-08-19T08:01:24;8.80;;;7.90;;
37001;SDS011;22913;51.910;8.374;2022-08-19T08:04:11;10.57;;;9.63;;
37001;SDS011;22913;51.910;8.374;2022-08-19T08:07:16;9.60;;;8.63;;
37001;SDS011;22913;51.910;8.374;2022-08-19T08:10:20;11.43;;;8.17;;
37001;SDS011;22913;51.910;8.374;2022-08-19T08:13:05;10.20;;;9.27;;
37001;SDS011;22913;51.910;8.374;2022-08-19T08:15:51;9.70;;;8.50;;
37001;SDS011;22913;51.910;8.374;2022-08-19T08:18:37;6.23;;;5.63;;
37001;SDS011;22913;51.910;8.374;2022-08-19T08:21:25;8.03;;;7.23;;
37001;SDS011;22913;51.910;8.374;2022-08-19T08:24:13;9.37;;;8.50;;
37001;SDS011;22913;51.910;8.374;2022-08-19T08:27:00;9.20;;;8.30;;
37001;SDS011;22913;51.910;8.374;2022-08-19T08:29:47;9.77;;;7.53;;
37001;SDS011;22913;51.910;8.374;2022-08-19T08:32:33;6.80;;;5.20;;
37001;SDS011;22913;51.910;8.374;2022-08-19T08:35:19;8.73;;;7.87;;
37001;SDS011;22913;51.910;8.374;2022-08-19T08:38:06;9.27;;;6.57;;
37001;SDS011;22913;51.910;8.374;2022-08-19T08:40:56;7.53;;;6.37;;
37001;SDS011;22913;51.910;8.374;2022-08-19T08:43:49;5.40;;;4.50;;
37001;SDS011;22913;51.910;8.374;2022-08-19T08:46:38;7.67;;;4.73;;
37001;SDS011;22913;51.910;8.374;2022-08-19T08:49:31;4.90;;;4.20;;
37001;SDS011;22913;51.910;8.374;2022-08-19T08:52:25;7.23;;;5.57;;
37001;SDS011;22913;51.910;8.374;2022-08-19T08:55:15;4.53;;;4.10;;
37001;SDS011;22913;51.910;8.374;2022-08-19T08:58:05;4.57;;;4.17;;
37001;SDS011;22913;51.910;8.374;2022-08-19T09:00:52;6.77;;;4.93;;
37001;SDS011;22913;51.910;8.374;2022-08-19T09:03:37;7.53;;;5.57;;
37001;SDS011;22913;51.910;8.374;2022-08-19T09:06:28;6.10;;;5.17;;
37001;SDS011;22913;51.910;8.374;2022-08-19T09:09:23;4.10;;;3.80;;
37001;SDS011;22913;51.910;8.374;2022-08-19T09:12:18;5.90;;;4.83;;
37001;SDS011;22913;51.910;8.374;2022-08-19T09:15:12;5.00;;;4.23;;
37001;SDS011;22913;51.910;8.374;2022-08-19T09:18:00;6.20;;;4.37;;
37001;SDS011;22913;51.910;8.374;2022-08-19T09:20:47;5.50;;;3.80;;
37001;SDS011;22913;51.910;8.374;2022-08-19T09:23:32;5.27;;;4.23;;
37001;SDS011;22913;51.910;8.374;2022-08-19T09:26:19;3.40;;;3.10;;
37001;SDS011;22913;51.910;8.374;2022-08-19T09:29:06;4.07;;;3.67;;
37001;SDS011;22913;51.910;8.374;2022-08-19T09:31:54;4.13;;;3.83;;
37001;SDS011;22913;51.910;8.374;2022-08-19T09:34:39;3.83;;;3.30;;
37001;SDS011;22913;51.910;8.374;2022-08-19T09:37:26;4.33;;;3.30;;
37001;SDS011;22913;51.910;8.374;2022-08-19T09:40:13;4.13;;;3.30;;
37001;SDS011;22913;51.910;8.374;2022-08-19T09:42:58;5.50;;;3.30;;
37001;SDS011;22913;51.910;8.374;2022-08-19T09:45:46;3.47;;;3.23;;
37001;SDS011;22913;51.910;8.374;2022-08-19T09:48:33;6.10;;;3.60;;
37001;SDS011;22913;51.910;8.374;2022-08-19T09:51:19;5.33;;;3.30;;
37001;SDS011;22913;51.910;8.374;2022-08-19T09:54:06;5.10;;;3.93;;
37001;SDS011;22913;51.910;8.374;2022-08-19T09:56:52;3.67;;;3.37;;
37001;SDS011;22913;51.910;8.374;2022-08-19T09:59:38;4.13;;;3.00;;
37001;SDS011;22913;51.910;8.374;2022-08-19T10:02:25;8.60;;;3.90;;
37001;SDS011;22913;51.910;8.374;2022-08-19T10:05:12;6.47;;;3.43;;
37001;SDS011;22913;51.910;8.374;2022-08-19T10:08:15;4.53;;;4.00;;
37001;SDS011;22913;51.910;8.374;2022-08-19T10:11:03;5.97;;;4.30;;
37001;SDS011;22913;51.910;8.374;2022-08-19T10:13:49;3.63;;;3.30;;
37001;SDS011;22913;51.910;8.374;2022-08-19T10:16:35;5.80;;;3.90;;
37001;SDS011;22913;51.910;8.374;2022-08-19T10:19:22;3.67;;;3.37;;
37001;SDS011;22913;51.910;8.374;2022-08-19T10:22:09;5.20;;;3.50;;
37001;SDS011;22913;51.910;8.374;2022-08-19T10:24:57;10.23;;;2.97;;
37001;SDS011;22913;51.910;8.374;2022-08-19T10:27:43;4.67;;;3.17;;
37001;SDS011;22913;51.910;8.374;2022-08-19T10:30:29;2.83;;;2.50;;
37001;SDS011;22913;51.910;8.374;2022-08-19T10:33:14;9.90;;;2.30;;
37001;SDS011;22913;51.910;8.374;2022-08-19T10:36:00;3.63;;;3.27;;
37001;SDS011;22913;51.910;8.374;2022-08-19T10:38:48;3.13;;;2.63;;
37001;SDS011;22913;51.910;8.374;2022-08-19T10:41:37;3.83;;;3.53;;
37001;SDS011;22913;51.910;8.374;2022-08-19T10:44:24;5.40;;;3.37;;
37001;SDS011;22913;51.910;8.374;2022-08-19T10:47:12;3.80;;;3.00;;
37001;SDS011;22913;51.910;8.374;2022-08-19T10:49:57;2.20;;;2.10;;
37001;SDS011;22913;51.910;8.374;2022-08-19T10:53:03;3.67;;;2.80;;
37001;SDS011;22913;51.910;8.374;2022-08-19T10:55:50;4.30;;;3.17;;
37001;SDS011;22913;51.910;8.374;2022-08-19T10:58:54;2.80;;;2.60;;
37001;SDS011;22913;51.910;8.374;2022-08-19T11:01:42;4.53;;;2.93;;
37001;SDS011;22913;51.910;8.374;2022-08-19T11:04:29;2.63;;;2.43;;
37001;SDS011;22913;51.910;8.374;2022-08-19T11:07:15;2.80;;;2.60;;
37001;SDS011;22913;51.910;8.374;2022-08-19T11:10:00;2.50;;;2.30;;
37001;SDS011;22913;51.910;8.374;2022-08-19T11:12:48;2.47;;;2.27;;
37001;SDS011;22913;51.910;8.374;2022-08-19T11:15:36;3.70;;;2.70;;
37001;SDS011;22913;51.910;8.374;2022-08-19T11:18:22;2.73;;;2.53;;
37001;SDS011;22913;51.910;8.374;2022-08-19T11:21:08;2.73;;;2.33;;
37001;SDS011;22913;51.910;8.374;2022-08-19T11:23:56;3.03;;;2.40;;
37001;SDS011;22913;51.910;8.374;2022-08-19T11:26:43;3.17;;;2.47;;
37001;SDS011;22913;51.910;8.374;2022-08-19T11:29:30;2.87;;;2.60;;
37001;SDS011;22913;51.910;8.374;2022-08-19T11:32:17;3.27;;;2.60;;
37001;SDS011;22913;51.910;8.374;2022-08-19T11:35:03;5.97;;;3.20;;
37001;SDS011;22913;51.910;8.374;2022-08-19T11:37:49;3.30;;;2.70;;
37001;SDS011;22913;51.910;8.374;2022-08-19T11:40:34;4.00;;;2.93;;
37001;SDS011;22913;51.910;8.374;2022-08-19T11:43:20;3.07;;;2.40;;
37001;SDS011;22913;51.910;8.374;2022-08-19T11:46:07;2.70;;;2.50;;
37001;SDS011;22913;51.910;8.374;2022-08-19T11:48:55;3.43;;;2.90;;
37001;SDS011;22913;51.910;8.374;2022-08-19T11:51:42;3.00;;;2.30;;
37001;SDS011;22913;51.910;8.374;2022-08-19T11:54:28;4.20;;;2.20;;
37001;SDS011;22913;51.910;8.374;2022-08-19T11:57:14;2.73;;;2.50;;
37001;SDS011;22913;51.910;8.374;2022-08-19T12:00:00;2.70;;;2.50;;
37001;SDS011;22913;51.910;8.374;2022-08-19T12:02:48;3.37;;;2.33;;
37001;SDS011;22913;51.910;8.374;2022-08-19T12:05:35;2.90;;;2.70;;
37001;SDS011;22913;51.910;8.374;2022-08-19T12:08:21;2.50;;;2.30;;
37001;SDS011;22913;51.910;8.374;2022-08-19T12:11:07;2.70;;;2.30;;
37001;SDS011;22913;51.910;8.374;2022-08-19T12:13:53;3.03;;;2.07;;
37001;SDS011;22913;51.910;8.374;2022-08-19T12:16:38;2.30;;;2.10;;
37001;SDS011;22913;51.910;8.374;2022-08-19T12:19:26;2.47;;;2.00;;
37001;SDS011;22913;51.910;8.374;2022-08-19T12:22:11;2.70;;;2.23;;
37001;SDS011;22913;51.910;8.374;2022-08-19T12:24:57;3.43;;;2.30;;
37001;SDS011;22913;51.910;8.374;2022-08-19T12:27:43;2.27;;;2.13;;
37001;SDS011;22913;51.910;8.374;2022-08-19T12:30:28;4.00;;;2.20;;
37001;SDS011;22913;51.910;8.374;2022-08-19T12:33:14;2.63;;;2.10;;
37001;SDS011;22913;51.910;8.374;2022-08-19T12:36:02;2.40;;;2.20;;
37001;SDS011;22913;51.910;8.374;2022-08-19T12:38:50;3.67;;;2.60;;
37001;SDS011;22913;51.910;8.374;2022-08-19T12:41:36;3.40;;;2.43;;
37001;SDS011;22913;51.910;8.374;2022-08-19T12:44:23;2.63;;;2.43;;
37001;SDS011;22913;51.910;8.374;2022-08-19T12:47:09;2.20;;;2.00;;
37001;SDS011;22913;51.910;8.374;2022-08-19T12:49:56;3.07;;;2.37;;
37001;SDS011;22913;51.910;8.374;2022-08-19T12:52:44;2.60;;;2.40;;
37001;SDS011;22913;51.910;8.374;2022-08-19T12:55:29;2.33;;;2.23;;
37001;SDS011;22913;51.910;8.374;2022-08-19T12:58:15;2.37;;;2.17;;
37001;SDS011;22913;51.910;8.374;2022-08-19T13:01:05;3.63;;;2.60;;
37001;SDS011;22913;51.910;8.374;2022-08-19T13:03:51;2.47;;;2.27;;
37001;SDS011;22913;51.910;8.374;2022-08-19T13:06:37;2.50;;;2.30;;
37001;SDS011;22913;51.910;8.374;2022-08-19T13:09:24;2.90;;;2.27;;
37001;SDS011;22913;51.910;8.374;2022-08-19T13:12:09;2.17;;;1.98;;
37001;SDS011;22913;51.910;8.374;2022-08-19T13:14:56;2.47;;;2.22;;
37001;SDS011;22913;51.910;8.374;2022-08-19T13:17:42;2.22;;;2.03;;
37001;SDS011;22913;51.910;8.374;2022-08-19T13:20:28;3.03;;;2.45;;
37001;SDS011;22913;51.910;8.374;2022-08-19T13:23:14;2.78;;;2.38;;
37001;SDS011;22913;51.910;8.374;2022-08-19T13:26:02;2.50;;;2.30;;
37001;SDS011;22913;51.910;8.374;2022-08-19T13:28:50;2.38;;;2.20;;
37001;SDS011;22913;51.910;8.374;2022-08-19T13:31:53;3.03;;;2.08;;
37001;SDS011;22913;51.910;8.374;2022-08-19T13:34:57;2.97;;;2.17;;
37001;SDS011;22913;51.910;8.374;2022-08-19T13:37:42;3.67;;;2.05;;
37001;SDS011;22913;51.910;8.374;2022-08-19T13:40:28;2.25;;;2.15;;
37001;SDS011;22913;51.910;8.374;2022-08-19T13:43:18;2.65;;;2.10;;
37001;SDS011;22913;51.910;8.374;2022-08-19T13:46:08;2.10;;;2.00;;
37001;SDS011;22913;51.910;8.374;2022-08-19T13:48:56;2.33;;;2.22;;
37001;SDS011;22913;51.910;8.374;2022-08-19T13:51:42;2.10;;;2.00;;
37001;SDS011;22913;51.910;8.374;2022-08-19T13:54:28;3.22;;;2.28;;
37001;SDS011;22913;51.910;8.374;2022-08-19T13:57:14;2.30;;;2.20;;
37001;SDS011;22913;51.910;8.374;2022-08-19T14:00:03;2.30;;;2.10;;
37001;SDS011;22913;51.910;8.374;2022-08-19T14:02:50;2.50;;;2.30;;
37001;SDS011;22913;51.910;8.374;2022-08-19T14:05:38;2.40;;;2.30;;
37001;SDS011;22913;51.910;8.374;2022-08-19T14:08:24;2.50;;;2.30;;
37001;SDS011;22913;51.910;8.374;2022-08-19T14:11:11;2.38;;;2.22;;
37001;SDS011;22913;51.910;8.374;2022-08-19T14:13:57;2.92;;;2.00;;
37001;SDS011;22913;51.910;8.374;2022-08-19T14:16:44;2.38;;;2.17;;
37001;SDS011;22913;51.910;8.374;2022-08-19T14:19:29;2.15;;;2.05;;
37001;SDS011;22913;51.910;8.374;2022-08-19T14:22:15;2.78;;;2.55;;
37001;SDS011;22913;51.910;8.374;2022-08-19T14:25:02;2.38;;;2.28;;
37001;SDS011;22913;51.910;8.374;2022-08-19T14:27:49;2.00;;;1.90;;
37001;SDS011;22913;51.910;8.374;2022-08-19T14:30:36;2.63;;;2.53;;
37001;SDS011;22913;51.910;8.374;2022-08-19T14:33:24;2.30;;;2.10;;
37001;SDS011;22913;51.910;8.374;2022-08-19T14:36:09;4.55;;;2.80;;
37001;SDS011;22913;51.910;8.374;2022-08-19T14:38:55;3.08;;;2.30;;
37001;SDS011;22913;51.910;8.374;2022-08-19T14:41:41;2.75;;;2.55;;
37001;SDS011;22913;51.910;8.374;2022-08-19T14:44:27;3.30;;;2.42;;
37001;SDS011;22913;51.910;8.374;2022-08-19T14:47:12;2.55;;;2.35;;
37001;SDS011;22913;51.910;8.374;2022-08-19T14:49:59;3.08;;;2.22;;
37001;SDS011;22913;51.910;8.374;2022-08-19T14:52:45;2.80;;;2.20;;
37001;SDS011;22913;51.910;8.374;2022-08-19T14:55:32;2.30;;;2.10;;
37001;SDS011;22913;51.910;8.374;2022-08-19T14:58:18;2.50;;;2.00;;
37001;SDS011;22913;51.910;8.374;2022-08-19T15:01:04;3.25;;;2.33;;
37001;SDS011;22913;51.910;8.374;2022-08-19T15:03:50;2.35;;;2.20;;
37001;SDS011;22913;51.910;8.374;2022-08-19T15:06:37;2.17;;;2.08;;
37001;SDS011;22913;51.910;8.374;2022-08-19T15:09:23;2.72;;;2.53;;
37001;SDS011;22913;51.910;8.374;2022-08-19T15:12:08;3.75;;;2.50;;
37001;SDS011;22913;51.910;8.374;2022-08-19T15:14:54;2.58;;;2.38;;
37001;SDS011;22913;51.910;8.374;2022-08-19T15:17:40;2.42;;;2.33;;
37001;SDS011;22913;51.910;8.374;2022-08-19T15:20:27;3.20;;;2.60;;
37001;SDS011;22913;51.910;8.374;2022-08-19T15:23:15;2.87;;;2.67;;
37001;SDS011;22913;51.910;8.374;2022-08-19T15:26:01;6.13;;;2.70;;
37001;SDS011;22913;51.910;8.374;2022-08-19T15:28:48;2.90;;;2.70;;
37001;SDS011;22913;51.910;8.374;2022-08-19T15:31:35;3.47;;;2.80;;
37001;SDS011;22913;51.910;8.374;2022-08-19T15:34:20;3.87;;;3.00;;
37001;SDS011;22913;51.910;8.374;2022-08-19T15:37:06;2.90;;;2.70;;
37001;SDS011;22913;51.910;8.374;2022-08-19T15:39:53;3.67;;;2.70;;
37001;SDS011;22913;51.910;8.374;2022-08-19T15:42:38;2.60;;;2.40;;
37001;SDS011;22913;51.910;8.374;2022-08-19T15:45:26;2.87;;;2.67;;
37001;SDS011;22913;51.910;8.374;2022-08-19T15:48:15;3.00;;;2.80;;
37001;SDS011;22913;51.910;8.374;2022-08-19T15:51:01;4.13;;;2.50;;
37001;SDS011;22913;51.910;8.374;2022-08-19T15:53:47;4.80;;;3.10;;
37001;SDS011;22913;51.910;8.374;2022-08-19T15:56:34;3.33;;;2.90;;
37001;SDS011;22913;51.910;8.374;2022-08-19T15:59:37;4.17;;;3.33;;
37001;SDS011;22913;51.910;8.374;2022-08-19T16:02:41;3.17;;;2.97;;
37001;SDS011;22913;51.910;8.374;2022-08-19T16:05:44;3.63;;;3.10;;
37001;SDS011;22913;51.910;8.374;2022-08-19T16:08:47;3.20;;;3.00;;
37001;SDS011;22913;51.910;8.374;2022-08-19T16:11:34;3.63;;;3.30;;
37001;SDS011;22913;51.910;8.374;2022-08-19T16:14:20;3.23;;;3.03;;
37001;SDS011;22913;51.910;8.374;2022-08-19T16:17:06;3.03;;;2.83;;
37001;SDS011;22913;51.910;8.374;2022-08-19T16:19:54;3.00;;;2.80;;
37001;SDS011;22913;51.910;8.374;2022-08-19T16:22:39;3.03;;;2.83;;
37001;SDS011;22913;51.910;8.374;2022-08-19T16:25:25;2.87;;;2.77;;
37001;SDS011;22913;51.910;8.374;2022-08-19T16:28:13;2.63;;;2.53;;
37001;SDS011;22913;51.910;8.374;2022-08-19T16:30:59;4.03;;;2.60;;
37001;SDS011;22913;51.910;8.374;2022-08-19T16:33:45;3.93;;;2.60;;
37001;SDS011;22913;51.910;8.374;2022-08-19T16:36:30;4.30;;;2.80;;
37001;SDS011;22913;51.910;8.374;2022-08-19T16:39:16;3.20;;;3.00;;
37001;SDS011;22913;51.910;8.374;2022-08-19T16:42:03;3.23;;;3.03;;